Terminal Aerodrome Forecast
Issued by NWS

Home | Current Version | Previous Version | Text Only | Print | Product List | Glossary Off
Versions: 1 2 3 4 5 6 7 8 9 10 11 12 13 14 15 16 17 18 19 20 21 22 23 24 25 26 27 28 29 30 31 32 33 34 35 36 37 38 39 40

132
FTUS43 KGRB 220520
TAFRHI
TAF
KRHI 220520Z 2206/2306 31006KT P6SM -SN OVC025
      TEMPO 2208/2210 SCT025
     FM221000 27005KT P6SM SCT020
     FM221600 24007KT P6SM BKN200
     FM222200 21007KT P6SM BKN070
     FM230300 20007KT 3SM -SN BKN035 OVC060 PROB30 2303/2306 5SM
      -FZRASN BKN020=

USA.gov is the U.S. government's official web portal to all federal, state and local government web resources and services.